createdAt,value
2022-12-03T00:00:12.569Z,18.92
2022-12-03T00:02:42.028Z,19.13
2022-12-03T00:05:10.930Z,17.80
2022-12-03T00:07:38.604Z,17.42
2022-12-03T00:10:07.603Z,18.63
2022-12-03T00:12:35.345Z,16.52
2022-12-03T00:15:03.585Z,16.80
2022-12-03T00:17:33.165Z,16.77
2022-12-03T00:20:00.802Z,17.25
2022-12-03T00:22:28.475Z,18.08
2022-12-03T00:24:56.310Z,16.27
2022-12-03T00:27:24.117Z,17.75
2022-12-03T00:29:51.771Z,16.42
2022-12-03T00:32:19.382Z,16.52
2022-12-03T00:34:46.988Z,17.10
2022-12-03T00:37:14.573Z,17.45
2022-12-03T00:39:42.181Z,15.25
2022-12-03T00:42:09.818Z,17.15
2022-12-03T00:44:37.383Z,18.52
2022-12-03T00:47:05.188Z,18.65
2022-12-03T00:49:33.030Z,17.83
2022-12-03T00:52:00.682Z,17.00
2022-12-03T00:54:31.896Z,17.13
2022-12-03T00:56:59.907Z,16.98
2022-12-03T00:59:27.635Z,16.83
2022-12-03T01:01:55.579Z,16.23
2022-12-03T01:04:23.300Z,16.33
2022-12-03T01:06:50.930Z,15.43
2022-12-03T01:09:18.579Z,16.73
2022-12-03T01:11:46.230Z,17.05
2022-12-03T01:14:17.289Z,16.83
2022-12-03T01:16:45.989Z,15.20
2022-12-03T01:19:15.817Z,15.50
2022-12-03T01:21:46.915Z,15.40
2022-12-03T01:24:14.941Z,15.82
2022-12-03T01:26:42.820Z,15.75
2022-12-03T01:29:10.746Z,14.48
2022-12-03T01:31:56.748Z,14.85
2022-12-03T01:36:52.594Z,15.43
2022-12-03T01:39:20.389Z,14.45
2022-12-03T01:41:49.929Z,15.10
2022-12-03T01:44:39.038Z,14.93
2022-12-03T01:47:13.298Z,14.27
2022-12-03T01:49:51.137Z,15.00
2022-12-03T01:52:24.295Z,14.70
2022-12-03T01:54:56.455Z,15.00
2022-12-03T01:57:30.494Z,13.98
2022-12-03T01:59:59.793Z,14.65
2022-12-03T02:02:32.315Z,15.27
2022-12-03T02:05:01.522Z,15.13
2022-12-03T02:07:33.671Z,15.65
2022-12-03T02:10:03.728Z,14.70
2022-12-03T02:12:47.844Z,14.80
2022-12-03T02:15:15.582Z,14.32
2022-12-03T02:17:44.189Z,13.93
2022-12-03T02:20:13.233Z,14.70
2022-12-03T02:22:54.165Z,13.68
2022-12-03T02:25:26.600Z,14.98
2022-12-03T02:27:55.771Z,16.13
2022-12-03T02:30:26.825Z,15.00
2022-12-03T02:32:55.945Z,14.32
2022-12-03T02:35:30.981Z,15.10
2022-12-03T02:38:27.226Z,14.00
2022-12-03T02:40:59.800Z,15.45
2022-12-03T02:43:27.714Z,15.13
2022-12-03T02:45:59.013Z,14.27
2022-12-03T02:48:31.964Z,15.18
2022-12-03T02:51:08.879Z,14.23
2022-12-03T02:53:45.129Z,15.32
2022-12-03T02:56:16.700Z,14.85
2022-12-03T02:58:47.284Z,15.88
2022-12-03T03:01:15.690Z,15.25
2022-12-03T03:03:45.902Z,16.17
2022-12-03T03:06:14.539Z,16.13
2022-12-03T03:08:43.239Z,16.73
2022-12-03T03:11:11.240Z,15.88
2022-12-03T03:13:39.615Z,15.90
2022-12-03T03:16:08.424Z,15.18
2022-12-03T03:18:36.463Z,16.17
2022-12-03T03:21:04.948Z,15.27
2022-12-03T03:23:32.669Z,16.42
2022-12-03T03:26:06.063Z,15.63
2022-12-03T03:28:38.666Z,16.27
2022-12-03T03:31:09.511Z,15.57
2022-12-03T03:33:39.916Z,14.35
2022-12-03T03:36:08.685Z,15.73
2022-12-03T03:38:38.231Z,14.95
2022-12-03T03:41:07.942Z,14.00
2022-12-03T03:43:37.915Z,14.73
2022-12-03T03:46:07.031Z,15.13
2022-12-03T03:48:35.860Z,15.35
2022-12-03T03:51:08.946Z,16.35
2022-12-03T03:53:41.039Z,16.42
2022-12-03T03:56:09.645Z,15.80
2022-12-03T03:58:37.922Z,16.20
2022-12-03T04:01:05.932Z,16.40
2022-12-03T04:03:34.626Z,15.73
2022-12-03T04:06:02.442Z,16.08
2022-12-03T04:08:30.407Z,15.23
2022-12-03T04:11:17.864Z,15.07
2022-12-03T04:13:45.475Z,15.77
2022-12-03T04:16:13.213Z,15.63
2022-12-03T04:18:43.839Z,15.48
2022-12-03T04:21:40.111Z,15.32
2022-12-03T04:24:10.182Z,15.20
2022-12-03T04:26:56.873Z,15.77
2022-12-03T04:29:24.534Z,15.98
2022-12-03T04:32:10.531Z,16.60
2022-12-03T04:34:56.919Z,16.45
2022-12-03T04:37:24.791Z,16.75
2022-12-03T04:39:52.504Z,16.17
2022-12-03T04:42:20.293Z,16.77
2022-12-03T04:44:47.894Z,16.63
2022-12-03T04:47:19.508Z,16.33
2022-12-03T04:49:50.596Z,15.82
2022-12-03T04:52:20.883Z,15.10
2022-12-03T04:54:48.560Z,17.45
2022-12-03T04:57:16.370Z,17.00
2022-12-03T04:59:43.960Z,17.25
2022-12-03T05:02:11.604Z,17.00
2022-12-03T05:04:39.299Z,16.63
2022-12-03T05:07:06.942Z,16.98
2022-12-03T05:09:34.588Z,16.58
2022-12-03T05:12:02.294Z,16.92
2022-12-03T05:14:30.104Z,16.33
2022-12-03T05:16:57.774Z,17.67
2022-12-03T05:19:45.697Z,17.65
2022-12-03T05:22:13.332Z,16.75
2022-12-03T05:24:41.027Z,17.40
2022-12-03T05:27:08.637Z,16.98
2022-12-03T05:29:36.233Z,17.95
2022-12-03T05:32:03.961Z,18.20
2022-12-03T05:34:31.598Z,17.00
2022-12-03T05:36:59.222Z,17.35
2022-12-03T05:39:26.841Z,17.48
2022-12-03T05:42:12.904Z,18.52
2022-12-03T05:47:08.415Z,17.83
2022-12-03T05:49:36.039Z,18.35
2022-12-03T05:52:03.932Z,19.35
2022-12-03T05:54:31.528Z,18.25
2022-12-03T05:56:59.154Z,17.27
2022-12-03T05:59:26.756Z,17.33
2022-12-03T06:01:54.389Z,17.88
2022-12-03T06:04:22.002Z,17.10
2022-12-03T06:06:49.768Z,18.70
2022-12-03T06:09:17.411Z,18.58
2022-12-03T06:11:45.054Z,18.35
2022-12-03T06:14:12.615Z,19.33
2022-12-03T06:16:40.236Z,17.83
2022-12-03T06:19:07.894Z,19.00
2022-12-03T06:21:35.537Z,19.85
2022-12-03T06:24:03.352Z,19.13
2022-12-03T06:26:30.956Z,19.25
2022-12-03T06:28:58.581Z,19.20
2022-12-03T06:31:26.229Z,19.38
2022-12-03T06:33:54.029Z,18.13
2022-12-03T06:36:23.442Z,19.15
2022-12-03T06:38:51.214Z,19.77
2022-12-03T06:41:18.837Z,18.00
2022-12-03T06:43:46.490Z,19.13
2022-12-03T06:46:14.180Z,18.80
2022-12-03T06:48:41.828Z,19.08
2022-12-03T06:51:09.367Z,18.38
2022-12-03T06:53:37.077Z,20.67
2022-12-03T06:56:05.175Z,20.13
2022-12-03T06:58:32.833Z,19.80
2022-12-03T07:01:00.414Z,19.67
2022-12-03T07:03:27.968Z,21.42
2022-12-03T07:05:55.689Z,19.20
2022-12-03T07:08:23.261Z,20.40
2022-12-03T07:10:50.938Z,19.98
2022-12-03T07:13:18.558Z,19.15
2022-12-03T07:15:46.230Z,20.70
2022-12-03T07:18:13.847Z,21.23
2022-12-03T07:20:41.497Z,19.95
2022-12-03T07:23:09.172Z,20.10
2022-12-03T07:25:36.760Z,19.45
2022-12-03T07:28:04.826Z,19.08
2022-12-03T07:30:32.461Z,22.08
2022-12-03T07:33:00.074Z,20.75
2022-12-03T07:35:27.976Z,20.67
2022-12-03T07:37:55.837Z,20.23
2022-12-03T07:40:23.505Z,20.55
2022-12-03T07:42:51.114Z,20.45
2022-12-03T07:45:18.735Z,19.70
2022-12-03T07:47:46.395Z,19.85
2022-12-03T07:50:14.136Z,20.75
2022-12-03T07:52:41.765Z,19.85
2022-12-03T07:55:11.830Z,20.17
2022-12-03T07:57:39.733Z,20.90
2022-12-03T08:00:08.178Z,18.85
2022-12-03T08:02:36.287Z,19.70
2022-12-03T08:05:05.312Z,19.50
2022-12-03T08:07:33.158Z,21.73
2022-12-03T08:10:00.784Z,19.88
2022-12-03T08:12:42.231Z,20.92
2022-12-03T08:15:19.005Z,22.65
2022-12-03T08:17:53.539Z,21.38
2022-12-03T08:20:25.033Z,20.85
2022-12-03T08:22:54.834Z,21.63
2022-12-03T08:25:29.743Z,20.70
2022-12-03T08:28:11.391Z,21.67
2022-12-03T08:30:39.837Z,21.75
2022-12-03T08:33:28.524Z,20.33
2022-12-03T08:35:56.264Z,21.50
2022-12-03T08:38:25.043Z,21.33
2022-12-03T08:40:55.684Z,20.50
2022-12-03T08:43:26.309Z,22.55
2022-12-03T08:45:57.777Z,19.95
2022-12-03T08:48:38.168Z,21.08
2022-12-03T08:51:26.007Z,21.17
2022-12-03T08:54:15.042Z,21.10
2022-12-03T08:56:43.434Z,19.95
2022-12-03T08:59:30.275Z,20.88
2022-12-03T09:01:59.449Z,20.85
2022-12-03T09:04:31.994Z,21.25
2022-12-03T09:06:59.809Z,20.95
2022-12-03T09:09:27.977Z,22.02
2022-12-03T09:11:56.150Z,21.67
2022-12-03T09:14:23.958Z,21.40
2022-12-03T09:16:56.203Z,21.35
2022-12-03T09:19:26.342Z,22.98
2022-12-03T09:21:55.217Z,21.40
2022-12-03T09:24:23.117Z,22.08
2022-12-03T09:26:50.738Z,21.17
2022-12-03T09:29:18.338Z,21.02
2022-12-03T09:31:46.143Z,21.88
2022-12-03T09:34:13.805Z,21.90
2022-12-03T09:36:41.439Z,22.08
2022-12-03T09:39:09.642Z,21.33
2022-12-03T09:41:37.416Z,22.80
2022-12-03T09:44:07.714Z,21.73
2022-12-03T09:46:38.660Z,25.30
2022-12-03T09:49:13.908Z,21.40
2022-12-03T09:51:45.462Z,22.15
2022-12-03T09:54:25.234Z,21.08
2022-12-03T09:56:55.795Z,22.17
2022-12-03T09:59:27.732Z,21.80
2022-12-03T10:01:55.674Z,22.00
2022-12-03T10:04:24.205Z,22.63
2022-12-03T10:06:51.919Z,22.30
2022-12-03T10:09:26.841Z,21.33
2022-12-03T10:12:13.401Z,21.15
2022-12-03T10:14:42.489Z,22.77
2022-12-03T10:17:11.795Z,21.13
2022-12-03T10:19:40.405Z,21.73
2022-12-03T10:22:08.667Z,20.42
2022-12-03T10:24:37.868Z,20.50
2022-12-03T10:27:24.968Z,21.08
2022-12-03T10:30:02.061Z,20.13
2022-12-03T10:32:44.419Z,19.90
2022-12-03T10:35:41.155Z,20.17
2022-12-03T10:38:22.381Z,23.00
2022-12-03T10:40:50.656Z,20.90
2022-12-03T10:43:18.205Z,20.70
2022-12-03T10:45:52.598Z,20.08
2022-12-03T10:48:26.288Z,20.42
2022-12-03T10:51:04.713Z,21.35
2022-12-03T10:53:36.199Z,21.45
2022-12-03T10:56:07.029Z,20.77
2022-12-03T10:58:37.972Z,21.02
2022-12-03T11:01:26.548Z,19.58
2022-12-03T11:04:02.902Z,21.40
2022-12-03T11:06:34.878Z,20.33
2022-12-03T11:09:08.879Z,20.73
2022-12-03T11:11:37.208Z,21.13
2022-12-03T11:14:10.639Z,21.98
2022-12-03T11:16:42.014Z,20.63
2022-12-03T11:19:12.613Z,21.23
2022-12-03T11:22:10.138Z,22.70
2022-12-03T11:24:40.288Z,21.83
2022-12-03T11:27:10.802Z,21.67
2022-12-03T11:30:00.037Z,20.88
2022-12-03T11:32:40.445Z,21.65
2022-12-03T11:35:34.480Z,20.92
2022-12-03T11:38:52.321Z,22.52
2022-12-03T11:41:35.164Z,21.30
2022-12-03T11:44:29.315Z,21.55
2022-12-03T11:46:58.386Z,21.20
2022-12-03T11:49:34.913Z,21.35
2022-12-03T11:52:37.574Z,21.35
2022-12-03T11:55:30.537Z,21.67
2022-12-03T11:58:01.939Z,22.08
2022-12-03T12:00:30.982Z,21.50
2022-12-03T12:02:59.188Z,22.35
2022-12-03T12:05:33.990Z,21.75
2022-12-03T12:08:03.262Z,22.27
2022-12-03T12:10:49.436Z,22.70
2022-12-03T12:13:55.581Z,23.20
2022-12-03T12:16:50.104Z,22.60
2022-12-03T12:19:31.464Z,23.42
2022-12-03T12:22:25.167Z,23.30
2022-12-03T12:25:05.820Z,23.08
2022-12-03T12:27:45.263Z,22.35
2022-12-03T12:30:18.196Z,23.13
2022-12-03T12:32:50.148Z,23.63
2022-12-03T12:35:25.296Z,24.40
2022-12-03T12:38:12.716Z,23.85
2022-12-03T12:43:27.540Z,23.40
2022-12-03T12:46:13.563Z,23.80
2022-12-03T12:48:47.892Z,24.13
2022-12-03T12:51:21.092Z,23.13
2022-12-03T12:53:49.900Z,23.52
2022-12-03T12:56:32.901Z,24.33
2022-12-03T12:59:21.943Z,22.55
2022-12-03T13:01:50.594Z,24.80
2022-12-03T13:04:22.220Z,25.50
2022-12-03T13:06:53.814Z,23.52
2022-12-03T13:09:27.129Z,23.38
2022-12-03T13:12:00.915Z,21.85
2022-12-03T13:14:36.712Z,21.95
2022-12-03T13:17:19.597Z,23.23
2022-12-03T13:20:00.631Z,23.75
2022-12-03T13:22:33.251Z,23.73
2022-12-03T13:25:58.273Z,24.25
2022-12-03T13:28:21.004Z,23.13
2022-12-03T13:30:48.643Z,23.15
2022-12-03T13:33:26.569Z,22.83
2022-12-03T13:35:56.348Z,22.13
2022-12-03T13:38:25.836Z,23.80
2022-12-03T13:41:00.428Z,24.13
2022-12-03T13:43:32.696Z,23.40
2022-12-03T13:46:01.273Z,22.70
2022-12-03T13:48:35.854Z,24.38
2022-12-03T13:51:31.889Z,24.05
2022-12-03T13:54:00.260Z,23.40
2022-12-03T13:56:33.905Z,23.65
2022-12-03T13:59:02.104Z,21.40
2022-12-03T14:01:30.152Z,22.25
2022-12-03T14:03:57.849Z,20.63
2022-12-03T14:06:25.504Z,21.02
2022-12-03T14:08:53.157Z,22.88
2022-12-03T14:11:39.601Z,20.95
2022-12-03T14:14:07.167Z,21.75
2022-12-03T14:16:34.781Z,21.25
2022-12-03T14:19:02.471Z,21.25
2022-12-03T14:21:30.099Z,20.33
2022-12-03T14:23:57.753Z,19.58
2022-12-03T14:26:25.335Z,22.50
2022-12-03T14:28:52.963Z,20.48
2022-12-03T14:31:20.584Z,19.35
2022-12-03T14:33:48.303Z,19.48
2022-12-03T14:36:16.091Z,20.13
2022-12-03T14:38:43.712Z,18.70
2022-12-03T14:41:31.328Z,20.15
2022-12-03T14:43:58.952Z,19.33
2022-12-03T14:46:26.574Z,20.40
2022-12-03T14:48:54.741Z,20.13
2022-12-03T14:51:22.389Z,19.38
2022-12-03T14:53:50.004Z,19.75
2022-12-03T14:56:19.828Z,20.27
2022-12-03T14:58:47.457Z,20.92
2022-12-03T15:01:15.131Z,19.90
2022-12-03T15:03:42.791Z,21.08
2022-12-03T15:06:10.379Z,20.20
2022-12-03T15:08:38.057Z,20.42
2022-12-03T15:11:05.981Z,19.77
2022-12-03T15:13:33.712Z,21.63
2022-12-03T15:16:01.350Z,19.92
2022-12-03T15:18:30.757Z,21.83
2022-12-03T15:20:58.398Z,20.90
2022-12-03T15:23:26.068Z,21.02
2022-12-03T15:25:53.662Z,21.60
2022-12-03T15:28:23.072Z,21.50
2022-12-03T15:30:51.123Z,21.45
2022-12-03T15:33:18.744Z,22.20
2022-12-03T15:35:46.451Z,21.98
2022-12-03T15:38:14.164Z,21.80
2022-12-03T15:40:41.835Z,21.27
2022-12-03T15:43:09.827Z,22.50
2022-12-03T15:45:38.043Z,21.45
2022-12-03T15:48:06.145Z,20.92
2022-12-03T15:50:39.764Z,20.02
2022-12-03T15:53:08.007Z,21.08
2022-12-03T15:55:35.613Z,20.33
2022-12-03T15:58:03.215Z,21.27
2022-12-03T16:00:31.038Z,20.58
2022-12-03T16:02:59.734Z,20.60
2022-12-03T16:05:27.482Z,21.20
2022-12-03T16:07:55.135Z,20.02
2022-12-03T16:10:22.841Z,21.63
2022-12-03T16:12:50.519Z,21.67
2022-12-03T16:15:22.091Z,20.25
2022-12-03T16:17:52.789Z,19.02
2022-12-03T16:20:20.469Z,20.63
2022-12-03T16:22:48.092Z,19.90
2022-12-03T16:25:15.771Z,19.58
2022-12-03T16:27:43.566Z,19.73
2022-12-03T16:30:12.385Z,19.08
2022-12-03T16:32:40.030Z,20.25
2022-12-03T16:35:08.276Z,19.98
2022-12-03T16:37:36.694Z,19.92
2022-12-03T16:40:05.046Z,20.85
2022-12-03T16:42:32.848Z,20.55
2022-12-03T16:45:03.321Z,20.42
2022-12-03T16:47:34.388Z,21.40
2022-12-03T16:50:04.974Z,21.70
2022-12-03T16:52:32.977Z,21.85
2022-12-03T16:55:00.575Z,21.77
2022-12-03T16:57:33.393Z,22.33
2022-12-03T17:00:01.512Z,21.73
2022-12-03T17:02:29.484Z,21.60
2022-12-03T17:04:57.171Z,22.55
2022-12-03T17:07:24.900Z,21.60
2022-12-03T17:09:52.891Z,21.88
2022-12-03T17:12:20.729Z,23.00
2022-12-03T17:14:48.420Z,21.23
2022-12-03T17:17:16.033Z,19.77
2022-12-03T17:19:43.645Z,20.20
2022-12-03T17:22:13.256Z,21.23
2022-12-03T17:24:40.900Z,20.83
2022-12-03T17:27:08.993Z,19.70
2022-12-03T17:29:36.865Z,20.13
2022-12-03T17:32:05.100Z,20.45
2022-12-03T17:34:32.752Z,18.85
2022-12-03T17:37:00.378Z,19.42
2022-12-03T17:39:27.989Z,19.45
2022-12-03T17:41:55.687Z,19.48
2022-12-03T17:44:24.358Z,20.83
2022-12-03T17:46:52.049Z,19.52
2022-12-03T17:49:19.671Z,19.60
2022-12-03T17:51:47.286Z,19.23
2022-12-03T17:54:14.892Z,18.77
2022-12-03T17:56:45.676Z,19.30
2022-12-03T17:59:13.828Z,19.00
2022-12-03T18:01:41.808Z,19.73
2022-12-03T18:04:10.548Z,18.85
2022-12-03T18:06:38.347Z,20.13
2022-12-03T18:09:06.067Z,20.20
2022-12-03T18:11:34.387Z,20.95
2022-12-03T18:14:02.362Z,19.25
2022-12-03T18:16:30.098Z,19.58
2022-12-03T18:19:02.009Z,20.58
2022-12-03T18:21:34.812Z,20.52
2022-12-03T18:24:02.681Z,18.58
2022-12-03T18:26:30.566Z,19.75
2022-12-03T18:28:58.178Z,21.25
2022-12-03T18:31:26.014Z,19.75
2022-12-03T18:33:53.836Z,19.90
2022-12-03T18:36:25.957Z,20.05
2022-12-03T18:38:56.431Z,19.52
2022-12-03T18:41:25.157Z,19.73
2022-12-03T18:43:53.114Z,20.33
2022-12-03T18:49:10.424Z,21.00
2022-12-03T18:51:38.325Z,21.98
2022-12-03T18:54:15.074Z,22.90
2022-12-03T18:56:42.765Z,21.65
2022-12-03T18:59:11.297Z,23.98
2022-12-03T19:01:39.062Z,24.35
2022-12-03T19:04:10.856Z,22.63
2022-12-03T19:06:38.738Z,22.90
2022-12-03T19:09:06.789Z,22.60
2022-12-03T19:11:34.536Z,23.83
2022-12-03T19:14:05.468Z,21.48
2022-12-03T19:16:36.168Z,24.17
2022-12-03T19:19:07.984Z,23.70
2022-12-03T19:21:36.364Z,22.88
2022-12-03T19:24:23.865Z,25.05
2022-12-03T19:26:54.722Z,23.83
2022-12-03T19:29:23.409Z,22.88
2022-12-03T19:31:52.266Z,23.25
2022-12-03T19:34:20.441Z,23.60
2022-12-03T19:36:48.319Z,24.48
2022-12-03T19:39:15.995Z,26.42
2022-12-03T19:41:44.654Z,24.35
2022-12-03T19:44:14.934Z,25.38
2022-12-03T19:46:43.382Z,24.33
2022-12-03T19:49:11.534Z,26.50
2022-12-03T19:51:39.177Z,25.98
2022-12-03T19:54:11.012Z,24.55
2022-12-03T19:56:39.392Z,24.17
2022-12-03T19:59:07.842Z,24.45
2022-12-03T20:01:40.417Z,24.52
2022-12-03T20:04:11.157Z,25.65
2022-12-03T20:06:39.178Z,25.27
2022-12-03T20:09:12.160Z,24.92
2022-12-03T20:11:41.480Z,25.63
2022-12-03T20:14:15.791Z,26.13
2022-12-03T20:16:44.959Z,25.13
2022-12-03T20:19:16.157Z,25.33
2022-12-03T20:21:44.965Z,24.50
2022-12-03T20:24:18.041Z,24.92
2022-12-03T20:26:46.190Z,25.67
2022-12-03T20:29:14.253Z,24.55
2022-12-03T20:31:42.089Z,25.65
2022-12-03T20:34:11.175Z,25.05
2022-12-03T20:36:39.941Z,25.70
2022-12-03T20:39:08.401Z,25.85
2022-12-03T20:41:37.854Z,25.17
2022-12-03T20:44:07.667Z,24.88
2022-12-03T20:46:36.493Z,24.27
2022-12-03T20:49:05.230Z,25.38
2022-12-03T20:51:33.596Z,23.02
2022-12-03T20:54:01.923Z,25.13
2022-12-03T20:56:36.069Z,23.42
2022-12-03T20:59:08.208Z,22.77
2022-12-03T21:01:38.563Z,24.88
2022-12-03T21:04:08.442Z,23.48
2022-12-03T21:06:37.686Z,22.98
2022-12-03T21:09:07.078Z,22.95
2022-12-03T21:11:38.988Z,23.92
2022-12-03T21:14:07.053Z,22.90
2022-12-03T21:19:25.939Z,22.33
2022-12-03T21:21:53.602Z,23.33
2022-12-03T21:24:21.301Z,23.20
2022-12-03T21:26:50.226Z,21.60
2022-12-03T21:29:18.187Z,23.02
2022-12-03T21:31:46.647Z,21.33
2022-12-03T21:34:14.376Z,22.52
2022-12-03T21:36:42.069Z,22.92
2022-12-03T21:39:09.875Z,21.42
2022-12-03T21:41:37.541Z,22.98
2022-12-03T21:44:05.967Z,21.80
2022-12-03T21:47:12.137Z,21.83
2022-12-03T21:49:22.685Z,23.40
2022-12-03T21:51:50.433Z,22.40
2022-12-03T21:54:18.510Z,22.92
2022-12-03T21:56:46.140Z,23.15
2022-12-03T21:59:13.774Z,24.70
2022-12-03T22:01:46.729Z,22.95
2022-12-03T22:04:15.660Z,22.85
2022-12-03T22:06:43.386Z,21.75
2022-12-03T22:09:11.047Z,22.77
2022-12-03T22:11:38.877Z,23.42
2022-12-03T22:14:08.200Z,23.50
2022-12-03T22:16:36.104Z,24.00
2022-12-03T22:19:04.187Z,23.48
2022-12-03T22:21:32.499Z,22.60
2022-12-03T22:24:00.123Z,24.70
2022-12-03T22:26:27.761Z,24.20
2022-12-03T22:28:55.400Z,25.92
2022-12-03T22:31:23.051Z,22.00
2022-12-03T22:33:50.801Z,23.98
2022-12-03T22:36:21.395Z,23.63
2022-12-03T22:38:50.799Z,24.10
2022-12-03T22:41:19.368Z,24.55
2022-12-03T22:43:48.517Z,25.98
2022-12-03T22:46:17.268Z,24.70
2022-12-03T22:48:46.745Z,24.92
2022-12-03T22:51:21.936Z,25.25
2022-12-03T22:53:59.620Z,24.45
2022-12-03T22:56:29.670Z,25.58
2022-12-03T22:58:57.721Z,27.05
2022-12-03T23:01:30.765Z,26.17
2022-12-03T23:03:59.255Z,25.58
2022-12-03T23:06:28.665Z,24.88
2022-12-03T23:08:57.980Z,26.67
2022-12-03T23:11:28.306Z,26.33
2022-12-03T23:13:57.091Z,26.98
2022-12-03T23:16:31.406Z,27.55
2022-12-03T23:19:01.170Z,25.13
2022-12-03T23:21:33.115Z,25.13
2022-12-03T23:24:03.412Z,24.92
2022-12-03T23:26:35.991Z,25.27
2022-12-03T23:29:05.484Z,25.83
2022-12-03T23:31:33.753Z,26.13
2022-12-03T23:34:02.071Z,26.33
2022-12-03T23:36:32.348Z,24.00
2022-12-03T23:39:00.505Z,25.58
2022-12-03T23:41:28.596Z,25.88
2022-12-03T23:43:57.121Z,25.90
2022-12-03T23:46:27.332Z,26.58
2022-12-03T23:48:55.696Z,26.55
2022-12-03T23:51:24.834Z,28.42
2022-12-03T23:53:54.482Z,26.88
2022-12-03T23:56:26.931Z,26.63
2022-12-03T23:58:54.624Z,27.00
